Time;durP1;ratioP1;P1;durP2;ratioP2;P2;SDS_P1;SDS_P2;PMS_P1;PMS_P2;Temp;Humidity;BMP_temperature;BMP_pressure;BME280_temperature;BME280_humidity;BME280_pressure;Samples;Min_cycle;Max_cycle;Signal;HPM_P1;HPM_P2
2022/12/09 00:01:57;;;;;;;13.20;6.17;;;-2.40;99.90;;;;;;5040451;28;20055;-80
2022/12/09 00:04:23;;;;;;;17.33;6.70;;;-3.90;99.90;;;;;;5044335;28;20084;-84
2022/12/09 00:06:49;;;;;;;13.33;6.03;;;-3.90;99.90;;;;;;5055919;28;20106;-84
2022/12/09 00:09:15;;;;;;;10.30;5.77;;;-3.90;99.90;;;;;;5072547;28;20080;-84
2022/12/09 00:11:42;;;;;;;11.43;5.27;;;-3.40;99.90;;;;;;5039087;28;20040;-84
2022/12/09 00:14:10;;;;;;;8.83;4.80;;;-4.00;99.90;;;;;;5071738;28;20044;-84
2022/12/09 00:16:36;;;;;;;10.93;5.80;;;-3.60;99.90;;;;;;5075744;28;20064;-84
2022/12/09 00:19:02;;;;;;;10.80;5.40;;;-4.00;99.90;;;;;;5092290;28;20093;-84
2022/12/09 00:21:31;;;;;;;14.30;6.30;;;-4.00;99.90;;;;;;5092732;28;20036;-81
2022/12/09 00:23:59;;;;;;;12.27;6.37;;;-4.00;99.90;;;;;;5091850;28;20369;-81
2022/12/09 00:26:26;;;;;;;19.30;6.77;;;-4.00;99.90;;;;;;5075350;28;20097;-81
2022/12/09 00:28:53;;;;;;;12.83;5.83;;;-3.90;99.90;;;;;;5092166;28;20047;-81
2022/12/09 00:31:24;;;;;;;13.33;6.33;;;-3.90;99.90;;;;;;5092013;28;20458;-81
2022/12/09 00:33:51;;;;;;;10.63;5.93;;;-3.90;99.90;;;;;;5084543;28;20219;-81
2022/12/09 00:36:21;;;;;;;10.23;5.30;;;-4.00;99.90;;;;;;5055243;28;20078;-81
2022/12/09 00:38:47;;;;;;;11.57;5.07;;;-4.00;99.90;;;;;;5055031;28;20131;-81
2022/12/09 00:41:15;;;;;;;8.70;4.33;;;-4.10;99.90;;;;;;5071719;28;20044;-81
2022/12/09 00:43:42;;;;;;;10.17;5.27;;;-4.10;99.90;;;;;;5074658;28;20707;-81
2022/12/09 00:46:09;;;;;;;10.00;5.03;;;-4.20;99.90;;;;;;5068260;28;20068;-81
2022/12/09 00:48:37;;;;;;;10.63;5.77;;;-3.50;99.90;;;;;;5054943;28;20384;-81
2022/12/09 00:51:06;;;;;;;9.30;5.20;;;-4.20;99.90;;;;;;5077571;28;20480;-81
2022/12/09 00:53:32;;;;;;;11.43;5.17;;;-4.20;99.90;;;;;;5075116;28;20487;-81
2022/12/09 00:55:58;;;;;;;9.43;5.20;;;-4.20;99.90;;;;;;5057209;28;20032;-81
2022/12/09 00:58:24;;;;;;;11.73;5.50;;;-4.10;99.90;;;;;;5071676;28;20044;-81
2022/12/09 01:00:52;;;;;;;11.60;5.97;;;-4.20;99.90;;;;;;5054719;28;20401;-81
2022/12/09 01:03:19;;;;;;;10.87;5.53;;;-4.20;99.90;;;;;;5038493;28;20051;-80
2022/12/09 01:05:45;;;;;;;12.33;5.70;;;-4.10;99.90;;;;;;5084475;28;20105;-80
2022/12/09 01:08:11;;;;;;;12.17;5.77;;;-4.20;99.90;;;;;;5091428;28;20048;-80
2022/12/09 01:10:39;;;;;;;12.77;6.33;;;-3.30;99.90;;;;;;5074620;28;20376;-80
2022/12/09 01:13:04;;;;;;;13.60;6.03;;;-3.50;99.90;;;;;;5091800;28;20040;-80
2022/12/09 01:15:30;;;;;;;12.40;6.07;;;-4.20;99.90;;;;;;5082572;28;20127;-80
2022/12/09 01:17:56;;;;;;;13.70;6.10;;;-4.20;99.90;;;;;;5086185;28;20039;-80
2022/12/09 01:20:22;;;;;;;12.40;4.87;;;-4.20;99.90;;;;;;5074548;28;20040;-80
2022/12/09 01:22:48;;;;;;;11.53;6.17;;;-4.20;99.90;;;;;;5091339;28;20036;-80
2022/12/09 01:25:14;;;;;;;11.80;5.67;;;-4.20;99.90;;;;;;5090924;28;20054;-80
2022/12/09 01:27:40;;;;;;;10.13;4.90;;;-4.30;99.90;;;;;;5074519;28;20436;-84
2022/12/09 01:30:10;;;;;;;9.57;5.17;;;-4.30;99.90;;;;;;5074564;28;20036;-84
2022/12/09 01:32:36;;;;;;;9.93;4.80;;;-4.30;99.90;;;;;;5091246;28;20174;-84
2022/12/09 01:35:03;;;;;;;9.50;4.80;;;-4.00;99.90;;;;;;5074729;28;20130;-84
2022/12/09 01:37:31;;;;;;;8.47;4.03;;;-4.30;99.90;;;;;;5054877;28;20039;-84
2022/12/09 01:39:57;;;;;;;9.77;4.47;;;-4.30;99.90;;;;;;5071268;28;20423;-84
2022/12/09 01:42:25;;;;;;;12.33;5.67;;;-4.30;99.90;;;;;;5070919;28;20048;-84
2022/12/09 01:45:18;;;;;;;9.70;4.80;;;-4.20;99.90;;;;;;5054591;28;20040;-80
2022/12/09 01:47:46;;;;;;;12.50;5.80;;;-4.10;99.90;;;;;;5072045;28;20077;-80
2022/12/09 01:50:12;;;;;;;12.00;4.67;;;-4.10;99.90;;;;;;5070888;28;20382;-80
2022/12/09 01:52:38;;;;;;;12.97;5.80;;;-4.20;99.90;;;;;;5056316;28;20063;-80
2022/12/09 01:55:05;;;;;;;13.23;5.47;;;-4.10;99.90;;;;;;5075194;28;20078;-80
2022/12/09 01:57:31;;;;;;;9.90;5.00;;;-4.00;99.90;;;;;;5058423;28;20542;-80
2022/12/09 01:59:57;;;;;;;12.63;4.77;;;-4.00;99.90;;;;;;5058524;28;20071;-84
2022/12/09 02:02:26;;;;;;;11.23;5.23;;;-3.90;99.90;;;;;;5074735;28;20106;-84
2022/12/09 02:04:52;;;;;;;10.50;5.20;;;-3.90;99.90;;;;;;5074492;28;20114;-84
2022/12/09 02:07:19;;;;;;;10.30;4.93;;;-3.90;99.90;;;;;;5080396;28;20127;-84
2022/12/09 02:09:45;;;;;;;10.10;4.93;;;-3.90;99.90;;;;;;5094844;28;20036;-84
2022/12/09 02:12:14;;;;;;;10.77;4.77;;;-3.80;99.90;;;;;;5094823;28;20454;-84
2022/12/09 02:14:53;;;;;;;13.53;5.77;;;-2.60;99.90;;;;;;5077971;28;20032;-84
2022/12/09 02:17:38;;;;;;;10.00;4.00;;;-3.90;99.90;;;;;;5075387;28;20123;-80
2022/12/09 02:20:03;;;;;;;11.43;4.83;;;-3.80;99.90;;;;;;5074661;28;20063;-80
2022/12/09 02:22:42;;;;;;;8.93;3.90;;;-4.20;99.90;;;;;;5057982;28;20492;-80
2022/12/09 02:25:32;;;;;;;12.50;5.10;;;-3.80;99.90;;;;;;5074475;28;20052;-80
2022/12/09 02:28:16;;;;;;;7.80;3.43;;;-3.80;99.90;;;;;;5074422;28;20069;-80
2022/12/09 02:31:07;;;;;;;10.40;4.40;;;-5.70;99.90;;;;;;5074407;28;20445;-80
2022/12/09 02:33:59;;;;;;;11.60;4.57;;;-3.90;99.90;;;;;;5074445;28;20062;-84
2022/12/09 02:36:29;;;;;;;9.37;4.00;;;-3.90;99.90;;;;;;5074155;28;20124;-84
2022/12/09 02:38:57;;;;;;;11.20;4.73;;;-3.90;99.90;;;;;;5075071;28;20070;-84
2022/12/09 02:41:26;;;;;;;8.87;4.03;;;-3.90;99.90;;;;;;5074255;28;20048;-84
2022/12/09 02:44:07;;;;;;;10.20;4.27;;;-4.00;99.90;;;;;;5073902;28;20068;-84
2022/12/09 02:46:34;;;;;;;9.20;3.87;;;-4.00;99.90;;;;;;5073889;28;20072;-84
2022/12/09 02:49:01;;;;;;;8.83;3.67;;;-3.20;99.90;;;;;;5057109;28;20052;-84
2022/12/09 02:51:32;;;;;;;8.20;3.53;;;-4.10;99.90;;;;;;5066890;28;20047;-81
2022/12/09 02:54:03;;;;;;;8.83;3.50;;;-4.10;99.90;;;;;;5094070;28;20036;-80
2022/12/09 02:56:31;;;;;;;13.67;4.27;;;-4.10;99.90;;;;;;5093973;28;20051;-80
2022/12/09 02:58:56;;;;;;;9.53;4.37;;;-2.60;99.90;;;;;;5076555;28;20091;-80
2022/12/09 03:01:40;;;;;;;10.37;4.30;;;-4.10;99.90;;;;;;5092072;28;20090;-80
2022/12/09 03:04:10;;;;;;;10.27;4.57;;;-4.10;99.90;;;;;;5075714;28;20507;-80
2022/12/09 03:06:43;;;;;;;11.17;4.57;;;-4.00;99.90;;;;;;5076912;28;20051;-84
2022/12/09 03:09:15;;;;;;;9.30;4.83;;;-3.90;99.90;;;;;;5075451;28;20043;-83
2022/12/09 03:11:41;;;;;;;12.83;5.93;;;-3.90;99.90;;;;;;5073528;28;20060;-84
2022/12/09 03:14:25;;;;;;;12.30;5.27;;;-3.80;99.90;;;;;;5040500;28;20048;-84
2022/12/09 03:17:19;;;;;;;11.57;4.73;;;-3.80;99.90;;;;;;5078689;28;20044;-84
2022/12/09 03:19:52;;;;;;;10.00;4.73;;;-3.70;99.90;;;;;;5072842;28;20044;-83
2022/12/09 03:22:22;;;;;;;10.97;4.37;;;-3.70;99.90;;;;;;5069268;28;20115;-83
2022/12/09 03:25:09;;;;;;;9.93;4.30;;;-3.70;99.90;;;;;;5073396;28;20048;-81
2022/12/09 03:27:57;;;;;;;11.87;5.40;;;-3.70;99.90;;;;;;5073192;28;20036;-81
2022/12/09 03:30:23;;;;;;;9.53;4.37;;;-3.70;99.90;;;;;;5073457;28;20488;-81
2022/12/09 03:32:51;;;;;;;16.90;5.97;;;-3.60;99.90;;;;;;5073363;28;20040;-81
2022/12/09 03:35:21;;;;;;;8.93;4.13;;;-3.60;99.90;;;;;;5073112;28;20074;-81
2022/12/09 03:37:48;;;;;;;9.00;4.60;;;-3.60;99.90;;;;;;5056398;28;20082;-81
2022/12/09 03:40:17;;;;;;;9.23;4.43;;;-3.70;99.90;;;;;;5074768;28;20097;-81
2022/12/09 03:42:50;;;;;;;9.27;4.13;;;-3.60;99.90;;;;;;5076732;28;20040;-83
2022/12/09 03:45:18;;;;;;;10.77;4.00;;;-3.50;99.90;;;;;;5093140;28;20050;-84
2022/12/09 03:47:44;;;;;;;10.93;5.13;;;-3.50;99.90;;;;;;5076378;28;20186;-84
2022/12/09 03:50:10;;;;;;;11.10;4.43;;;-3.50;99.90;;;;;;5093126;28;20527;-84
2022/12/09 03:52:50;;;;;;;13.97;5.80;;;-2.30;99.90;;;;;;5075073;28;20044;-84
2022/12/09 03:55:43;;;;;;;11.77;5.03;;;-3.70;99.90;;;;;;5072598;28;20404;-84
2022/12/09 03:58:11;;;;;;;11.37;4.83;;;-3.40;99.90;;;;;;5056011;28;20116;-84
2022/12/09 04:00:38;;;;;;;11.90;4.83;;;-3.40;99.90;;;;;;5072752;28;20123;-83
2022/12/09 04:03:05;;;;;;;11.60;4.70;;;-3.40;99.90;;;;;;5089461;28;20036;-83
2022/12/09 04:05:31;;;;;;;8.27;4.00;;;-3.40;99.90;;;;;;5075515;28;20052;-84
2022/12/09 04:07:57;;;;;;;10.10;4.37;;;-3.50;99.90;;;;;;5075713;28;20039;-83
2022/12/09 04:10:23;;;;;;;9.00;3.67;;;-3.50;99.90;;;;;;5092750;28;20075;-83
2022/12/09 04:12:48;;;;;;;9.03;4.13;;;-3.50;99.90;;;;;;5080156;28;20554;-84
2022/12/09 04:15:14;;;;;;;9.13;3.83;;;-3.60;99.90;;;;;;5038373;28;20040;-84
2022/12/09 04:17:40;;;;;;;9.57;4.03;;;-3.60;99.90;;;;;;5068211;28;20043;-81
2022/12/09 04:20:06;;;;;;;7.63;3.97;;;-3.60;99.90;;;;;;5087371;22;20048;-80
2022/12/09 04:22:32;;;;;;;7.30;3.43;;;-3.60;99.90;;;;;;5069388;28;20048;-80
2022/12/09 04:24:58;;;;;;;10.20;4.27;;;-3.60;99.90;;;;;;5039229;28;20058;-80
2022/12/09 04:27:26;;;;;;;7.27;3.57;;;-2.80;99.90;;;;;;5039017;28;20455;-80
2022/12/09 04:29:52;;;;;;;7.30;3.47;;;-1.60;99.90;;;;;;5055464;28;20435;-80
2022/12/09 04:32:17;;;;;;;8.90;3.73;;;-3.80;99.90;;;;;;5056757;28;20045;-80
2022/12/09 04:34:43;;;;;;;9.10;4.30;;;-3.80;99.90;;;;;;5058620;28;20540;-80
2022/12/09 04:37:08;;;;;;;9.17;4.37;;;-3.90;99.90;;;;;;5075211;28;20040;-80
2022/12/09 04:39:34;;;;;;;9.23;3.77;;;-3.70;99.90;;;;;;5058674;28;20069;-80
2022/12/09 04:42:00;;;;;;;9.30;4.00;;;-3.80;99.90;;;;;;5075099;28;20055;-80
2022/12/09 04:44:26;;;;;;;9.93;4.03;;;-3.80;99.90;;;;;;5041435;28;20043;-80
2022/12/09 04:46:51;;;;;;;8.83;4.23;;;-3.80;99.90;;;;;;5058731;28;20055;-80
2022/12/09 04:49:17;;;;;;;10.20;4.00;;;-3.80;99.90;;;;;;5058643;28;20590;-80
2022/12/09 04:51:42;;;;;;;8.83;4.30;;;-3.80;99.90;;;;;;5075022;28;20047;-80
2022/12/09 04:54:12;;;;;;;9.67;4.87;;;-3.90;99.90;;;;;;5065555;28;20057;-80
2022/12/09 04:56:38;;;;;;;8.83;3.70;;;-3.90;99.90;;;;;;5038542;28;20040;-80
2022/12/09 04:59:04;;;;;;;7.87;3.77;;;-3.70;99.90;;;;;;5055155;28;20040;-80
2022/12/09 05:01:30;;;;;;;9.30;3.70;;;-3.90;99.90;;;;;;5054984;28;20055;-80
2022/12/09 05:03:56;;;;;;;7.33;3.63;;;-3.90;99.90;;;;;;5064535;28;20031;-80
2022/12/09 05:06:22;;;;;;;9.57;3.90;;;-3.80;99.90;;;;;;5058257;28;20052;-80
2022/12/09 05:08:48;;;;;;;8.23;3.50;;;-3.90;99.90;;;;;;5074908;28;20044;-80
2022/12/09 05:11:15;;;;;;;7.60;3.93;;;-3.80;99.90;;;;;;5041433;28;20076;-80
2022/12/09 05:13:40;;;;;;;12.27;5.57;;;-3.40;99.90;;;;;;5074987;28;20361;-80
2022/12/09 05:16:09;;;;;;;10.30;4.60;;;-3.90;99.90;;;;;;5037760;28;20151;-80
2022/12/09 05:18:35;;;;;;;10.13;4.37;;;-3.90;99.90;;;;;;5037825;28;20041;-80
2022/12/09 05:21:09;;;;;;;13.77;3.90;;;-3.80;99.90;;;;;;5054782;28;20102;-80
2022/12/09 05:23:36;;;;;;;8.77;4.83;;;-3.80;99.90;;;;;;5038272;28;20490;-80
2022/12/09 05:26:07;;;;;;;10.10;4.43;;;-3.80;99.90;;;;;;5052360;28;20035;-80
2022/12/09 05:28:33;;;;;;;8.27;3.77;;;-3.80;99.90;;;;;;5058310;28;20122;-80
2022/12/09 05:31:00;;;;;;;8.30;4.00;;;-3.30;99.90;;;;;;5057829;28;20070;-80
2022/12/09 05:33:28;;;;;;;9.87;5.37;;;-3.80;99.90;;;;;;5074629;28;20040;-80
2022/12/09 05:35:54;;;;;;;10.93;4.37;;;-3.10;99.90;;;;;;5073342;28;20097;-80
2022/12/09 05:38:21;;;;;;;10.97;5.27;;;-3.80;99.90;;;;;;5074471;28;20040;-83
2022/12/09 05:40:46;;;;;;;9.33;4.50;;;-3.80;99.90;;;;;;5074239;28;20040;-84
2022/12/09 05:43:12;;;;;;;9.23;4.40;;;-3.80;99.90;;;;;;5057633;28;20067;-83
2022/12/09 05:45:38;;;;;;;8.97;4.27;;;-3.80;99.90;;;;;;5040674;28;20067;-83
2022/12/09 05:48:03;;;;;;;7.03;3.07;;;-3.80;99.90;;;;;;5074213;28;20131;-83
2022/12/09 05:50:29;;;;;;;9.90;3.57;;;-3.80;99.90;;;;;;5057688;28;20040;-83
2022/12/09 05:52:55;;;;;;;7.63;3.07;;;-4.10;99.90;;;;;;5074336;28;20070;-80
2022/12/09 05:55:20;;;;;;;8.70;3.93;;;-3.90;99.90;;;;;;5056745;28;20039;-80
2022/12/09 05:57:46;;;;;;;7.40;3.40;;;-2.10;99.90;;;;;;5057647;28;20047;-80
2022/12/09 06:00:13;;;;;;;9.37;4.03;;;-3.90;99.90;;;;;;5074272;28;20055;-80
2022/12/09 06:02:38;;;;;;;10.87;4.27;;;-3.90;99.90;;;;;;5057922;28;20373;-80
2022/12/09 06:05:04;;;;;;;11.27;4.17;;;-3.60;99.90;;;;;;5074124;28;20047;-80
2022/12/09 06:07:30;;;;;;;10.10;4.53;;;-3.80;99.90;;;;;;5073211;28;20040;-84
2022/12/09 06:09:56;;;;;;;7.83;3.53;;;-3.80;99.90;;;;;;5074032;28;20475;-84
2022/12/09 06:12:22;;;;;;;9.73;4.33;;;-3.90;99.90;;;;;;5074040;28;20088;-80
2022/12/09 06:14:47;;;;;;;10.90;4.47;;;-2.40;99.90;;;;;;5057282;28;20394;-80
2022/12/09 06:17:13;;;;;;;13.00;4.73;;;-4.20;99.90;;;;;;5048399;28;20043;-80
2022/12/09 06:19:39;;;;;;;9.33;4.20;;;;;;;;;;5039449;28;20060;-80
2022/12/09 06:22:05;;;;;;;8.53;4.10;;;;;;;;;;5070867;28;20041;-80
2022/12/09 06:24:31;;;;;;;7.87;4.03;;;-4.00;99.90;;;;;;5053923;28;20040;-83
2022/12/09 06:26:57;;;;;;;7.37;3.27;;;-4.00;99.90;;;;;;5059433;28;20109;-81
2022/12/09 06:29:23;;;;;;;8.17;3.63;;;-4.00;99.90;;;;;;5080862;28;20037;-80
2022/12/09 06:31:48;;;;;;;11.67;4.53;;;-4.00;99.90;;;;;;5053842;28;20036;-80
2022/12/09 06:34:14;;;;;;;11.03;4.70;;;-4.00;99.90;;;;;;5053801;28;20461;-80
2022/12/09 06:36:40;;;;;;;10.07;4.30;;;-4.50;99.90;;;;;;5053971;28;20037;-80
2022/12/09 06:39:06;;;;;;;8.77;4.07;;;-3.90;99.90;;;;;;5058037;28;20066;-80
2022/12/09 06:41:31;;;;;;;11.67;4.70;;;-3.80;99.90;;;;;;5057309;28;20117;-80
2022/12/09 06:44:01;;;;;;;12.10;5.17;;;-3.70;99.90;;;;;;5074277;28;20044;-80
2022/12/09 06:46:27;;;;;;;16.17;5.73;;;-3.10;99.90;;;;;;5074253;28;20503;-79
2022/12/09 06:48:53;;;;;;;9.70;4.40;;;-3.50;99.90;;;;;;5072828;28;20055;-80
2022/12/09 06:51:20;;;;;;;11.07;4.23;;;-3.40;99.90;;;;;;5094459;28;20511;-80
2022/12/09 06:53:46;;;;;;;9.90;4.77;;;-3.30;99.90;;;;;;5093741;28;20040;-80
2022/12/09 06:56:13;;;;;;;10.83;5.50;;;-1.60;99.90;;;;;;5093765;28;20619;-80
2022/12/09 06:58:43;;;;;;;14.37;6.17;;;-3.20;99.90;;;;;;5094349;28;20383;-80
2022/12/09 07:01:14;;;;;;;18.70;6.07;;;-2.30;99.90;;;;;;5094369;28;20399;-80
2022/12/09 07:03:42;;;;;;;13.40;5.77;;;-2.90;99.90;;;;;;5090109;28;20083;-80
2022/12/09 07:06:19;;;;;;;14.73;5.83;;;-2.90;99.90;;;;;;5093823;28;20127;-80
2022/12/09 07:08:45;;;;;;;12.97;5.77;;;-3.00;99.90;;;;;;5093766;28;20040;-80
2022/12/09 07:11:11;;;;;;;13.80;6.27;;;-2.80;99.90;;;;;;5076817;28;20066;-80
2022/12/09 07:13:36;;;;;;;13.80;5.60;;;-2.70;99.90;;;;;;5076047;28;20056;-80
2022/12/09 07:16:02;;;;;;;11.70;5.80;;;;;;;;;;5093599;28;20052;-80
2022/12/09 07:18:28;;;;;;;15.73;6.30;;;-2.60;99.90;;;;;;5096137;28;20036;-80
2022/12/09 07:20:54;;;;;;;16.50;5.97;;;-2.60;99.90;;;;;;5080347;28;20048;-80
2022/12/09 07:23:19;;;;;;;11.70;5.60;;;-4.20;99.90;;;;;;5093600;28;20114;-80
2022/12/09 07:25:57;;;;;;;15.10;6.63;;;-2.60;99.90;;;;;;5043514;28;20047;-80
2022/12/09 07:28:23;;;;;;;14.80;6.47;;;-2.50;99.90;;;;;;5076853;28;20047;-80
2022/12/09 07:30:48;;;;;;;14.20;6.63;;;-2.00;99.90;;;;;;5043479;28;20544;-80
2022/12/09 07:33:14;;;;;;;14.33;6.87;;;-2.30;99.90;;;;;;5059971;28;20043;-80
2022/12/09 07:35:40;;;;;;;17.93;8.03;;;-2.20;99.90;;;;;;5041915;28;20036;-80
2022/12/09 07:38:05;;;;;;;18.37;6.77;;;-2.10;99.90;;;;;;5039724;28;20515;-80
2022/12/09 07:40:31;;;;;;;17.20;6.80;;;-0.90;99.90;;;;;;5056617;28;20162;-79
2022/12/09 07:42:57;;;;;;;15.53;6.80;;;-2.20;99.90;;;;;;5056273;28;20519;-80
2022/12/09 07:45:22;;;;;;;19.90;7.30;;;-2.10;99.90;;;;;;5057636;28;20099;-79
2022/12/09 07:47:48;;;;;;;22.13;8.57;;;-2.00;99.90;;;;;;5068780;28;20534;-79
2022/12/09 07:50:14;;;;;;;20.53;9.67;;;-1.80;99.90;;;;;;5038476;28;20032;-80
2022/12/09 07:52:39;;;;;;;21.53;9.80;;;-1.70;99.90;;;;;;5092843;28;20185;-80
2022/12/09 07:55:07;;;;;;;29.30;9.73;;;-1.60;99.90;;;;;;5022829;28;20411;-80
2022/12/09 07:57:33;;;;;;;20.43;8.70;;;-1.30;99.90;;;;;;5056408;28;20436;-80
2022/12/09 07:59:59;;;;;;;24.63;10.57;;;-1.20;99.90;;;;;;5056235;28;20043;-80
2022/12/09 08:02:25;;;;;;;25.20;9.30;;;-1.00;99.90;;;;;;5039312;28;20407;-80
2022/12/09 08:04:50;;;;;;;26.83;9.77;;;-0.90;99.90;;;;;;5057228;28;20095;-80
2022/12/09 08:07:16;;;;;;;18.83;9.37;;;-0.90;99.90;;;;;;5055996;28;20044;-80
2022/12/09 08:09:42;;;;;;;30.63;11.83;;;-0.80;99.90;;;;;;5039184;28;20591;-80
2022/12/09 08:12:10;;;;;;;24.03;10.47;;;-0.80;99.90;;;;;;5056111;28;20036;-80
2022/12/09 08:14:35;;;;;;;20.13;8.87;;;-0.40;99.90;;;;;;5055926;28;20458;-79
2022/12/09 08:17:01;;;;;;;23.90;10.47;;;-0.70;99.90;;;;;;5053350;28;20325;-79
2022/12/09 08:19:27;;;;;;;21.93;9.67;;;-0.70;99.90;;;;;;5101191;28;20421;-79
2022/12/09 08:21:53;;;;;;;20.97;8.47;;;-0.80;99.90;;;;;;5079382;28;20075;-79
2022/12/09 08:24:18;;;;;;;20.37;8.83;;;-0.70;99.90;;;;;;5075806;28;20083;-79
2022/12/09 08:26:44;;;;;;;24.83;9.53;;;-0.80;99.90;;;;;;5075344;28;20480;-80
2022/12/09 08:29:11;;;;;;;23.83;9.67;;;-0.70;99.90;;;;;;5092144;28;20040;-79
2022/12/09 08:31:39;;;;;;;34.87;9.87;;;-0.70;99.90;;;;;;5082803;28;20048;-79
2022/12/09 08:34:05;;;;;;;27.13;10.27;;;-0.70;99.90;;;;;;5072288;28;20109;-79
2022/12/09 08:36:31;;;;;;;20.10;9.80;;;-0.70;99.90;;;;;;5054917;28;20504;-79
2022/12/09 08:38:59;;;;;;;20.83;9.40;;;-0.70;99.90;;;;;;5070895;28;20044;-79
2022/12/09 08:41:34;;;;;;;20.27;9.03;;;0.00;99.90;;;;;;5060790;28;20127;-83
2022/12/09 08:44:18;;;;;;;16.97;8.20;;;-0.60;99.90;;;;;;5091915;28;20512;-83
2022/12/09 08:46:49;;;;;;;29.03;10.47;;;-0.70;99.90;;;;;;5075104;28;20044;-83
2022/12/09 08:49:18;;;;;;;20.07;9.33;;;0.30;99.90;;;;;;5091863;28;20046;-83
2022/12/09 08:51:44;;;;;;;20.57;9.27;;;-0.50;99.90;;;;;;5086844;28;20052;-83
2022/12/09 08:54:10;;;;;;;19.07;8.87;;;-0.50;99.90;;;;;;5054977;28;20503;-83
2022/12/09 08:56:36;;;;;;;21.97;10.37;;;1.00;99.90;;;;;;5071508;28;20434;-84
2022/12/09 08:59:02;;;;;;;18.90;8.57;;;-0.30;99.90;;;;;;5071694;28;20048;-83
2022/12/09 09:01:36;;;;;;;22.50;9.23;;;-0.30;99.90;;;;;;5071087;28;20502;-83
2022/12/09 09:04:08;;;;;;;21.97;9.70;;;-0.20;99.90;;;;;;5071463;28;20056;-83
2022/12/09 09:06:34;;;;;;;19.50;8.43;;;-0.20;99.90;;;;;;5054775;28;20503;-83
2022/12/09 09:09:00;;;;;;;23.23;9.90;;;-0.20;99.90;;;;;;5071579;28;20079;-81
2022/12/09 09:11:26;;;;;;;21.10;9.17;;;0.00;99.90;;;;;;5071434;28;20076;-81
2022/12/09 09:13:52;;;;;;;22.27;9.20;;;-0.30;99.90;;;;;;5039291;28;20048;-79
2022/12/09 09:16:20;;;;;;;27.93;8.77;;;2.20;99.90;;;;;;5075829;28;20044;-79
2022/12/09 09:18:47;;;;;;;19.77;9.33;;;-0.30;99.90;;;;;;5111608;28;20113;-79
2022/12/09 09:21:14;;;;;;;22.47;9.73;;;-0.30;99.90;;;;;;5094797;28;20104;-79
2022/12/09 09:23:40;;;;;;;17.23;8.30;;;0.20;99.90;;;;;;5074961;28;20036;-79
2022/12/09 09:26:15;;;;;;;19.03;7.77;;;-0.30;99.90;;;;;;5054285;28;20381;-79
2022/12/09 09:28:41;;;;;;;23.50;10.27;;;-0.30;99.90;;;;;;5037706;28;20066;-79
2022/12/09 09:31:09;;;;;;;19.60;9.57;;;0.90;99.90;;;;;;5054311;28;20660;-79
2022/12/09 09:33:35;;;;;;;23.17;9.73;;;-0.10;99.90;;;;;;5060499;28;20036;-79
2022/12/09 09:36:03;;;;;;;25.30;8.47;;;-0.10;99.90;;;;;;5074343;28;20043;-80
2022/12/09 09:38:31;;;;;;;22.90;9.07;;;-0.10;99.90;;;;;;5067691;28;20047;-80
2022/12/09 09:40:58;;;;;;;41.60;11.17;;;-0.10;99.90;;;;;;5054454;28;20178;-80
2022/12/09 09:43:32;;;;;;;20.37;8.63;;;-0.10;99.90;;;;;;5055926;28;20051;-79
2022/12/09 09:45:58;;;;;;;24.10;9.70;;;-0.10;99.90;;;;;;5074187;28;20044;-80
2022/12/09 09:48:31;;;;;;;26.50;10.30;;;-0.10;99.90;;;;;;5071853;28;20054;-81
2022/12/09 09:51:12;;;;;;;16.53;8.53;;;-0.20;99.90;;;;;;5042877;28;20044;-81
2022/12/09 09:53:38;;;;;;;23.50;9.77;;;-0.20;99.90;;;;;;5072757;28;20055;-81
2022/12/09 09:56:39;;;;;;;22.47;9.83;;;-0.20;99.90;;;;;;5054204;28;20051;-81
2022/12/09 09:59:15;;;;;;;22.47;10.07;;;-0.20;99.90;;;;;;5038596;28;20540;-81
2022/12/09 10:01:47;;;;;;;23.23;10.60;;;-0.20;99.90;;;;;;5054484;28;20052;-81
2022/12/09 10:04:37;;;;;;;27.60;10.80;;;0.30;99.90;;;;;;5054504;28;20378;-81
2022/12/09 10:07:12;;;;;;;26.70;9.90;;;0.70;99.90;;;;;;5053955;28;20084;-81
2022/12/09 10:09:52;;;;;;;27.93;9.73;;;-0.10;99.90;;;;;;5055133;28;20496;-81
2022/12/09 10:12:31;;;;;;;27.27;10.60;;;-0.10;99.90;;;;;;5053884;28;20040;-81
2022/12/09 10:15:03;;;;;;;21.70;9.67;;;1.20;99.90;;;;;;5041290;28;20043;-81
2022/12/09 10:17:47;;;;;;;28.33;10.77;;;0.00;99.90;;;;;;5063298;28;20036;-81
2022/12/09 10:20:14;;;;;;;22.57;9.67;;;0.10;99.90;;;;;;5082209;28;20169;-81
2022/12/09 10:23:02;;;;;;;29.57;11.13;;;1.30;99.90;;;;;;5094658;28;20051;-80
2022/12/09 10:25:30;;;;;;;26.73;10.23;;;0.20;99.90;;;;;;5094678;28;20048;-80
2022/12/09 10:28:14;;;;;;;25.53;9.87;;;0.30;99.90;;;;;;5094505;28;20406;-80
2022/12/09 10:30:40;;;;;;;23.30;9.37;;;0.30;99.90;;;;;;5092722;28;20040;-80
2022/12/09 10:33:12;;;;;;;24.10;10.60;;;0.80;99.90;;;;;;5094478;28;20063;-80
2022/12/09 10:35:38;;;;;;;17.57;8.07;;;-0.80;99.90;;;;;;5077638;28;20032;-80
2022/12/09 10:38:18;;;;;;;20.67;9.50;;;0.40;99.90;;;;;;5094710;28;20032;-84
2022/12/09 10:40:48;;;;;;;27.03;10.03;;;0.50;99.90;;;;;;5087549;28;20040;-84
2022/12/09 10:43:37;;;;;;;21.50;9.73;;;0.50;99.90;;;;;;5074214;28;20047;-84
2022/12/09 10:46:16;;;;;;;17.50;8.47;;;2.00;99.90;;;;;;5057828;28;20094;-84
2022/12/09 10:48:45;;;;;;;17.93;8.83;;;0.40;99.90;;;;;;5057427;28;20048;-84
2022/12/09 10:51:29;;;;;;;23.20;9.27;;;0.50;99.90;;;;;;5075112;28;20055;-84
2022/12/09 10:53:56;;;;;;;22.40;9.67;;;0.60;99.90;;;;;;5073940;28;20404;-80
2022/12/09 10:56:31;;;;;;;22.63;9.53;;;0.60;99.90;;;;;;5073764;28;20055;-80
2022/12/09 10:59:24;;;;;;;22.73;9.67;;;0.60;99.90;;;;;;5074218;28;20427;-80
2022/12/09 11:02:02;;;;;;;22.70;9.57;;;0.60;99.90;;;;;;5056898;28;20044;-80
2022/12/09 11:04:34;;;;;;;27.00;8.83;;;0.70;99.90;;;;;;5073480;28;20044;-79
2022/12/09 11:07:09;;;;;;;28.57;9.47;;;0.80;99.90;;;;;;5073621;28;20044;-79
2022/12/09 11:09:37;;;;;;;21.47;9.60;;;0.90;99.90;;;;;;5056832;28;20055;-79
2022/12/09 11:12:28;;;;;;;21.43;10.23;;;1.00;99.90;;;;;;5081798;28;20127;-80
2022/12/09 11:14:56;;;;;;;22.40;9.90;;;1.20;99.90;;;;;;5093939;28;20388;-80
2022/12/09 11:17:31;;;;;;;22.60;9.27;;;1.70;99.90;;;;;;5103896;28;20069;-80
2022/12/09 11:20:20;;;;;;;19.03;8.33;;;1.20;99.90;;;;;;5113810;28;20063;-80
2022/12/09 11:23:02;;;;;;;22.83;9.57;;;1.10;99.90;;;;;;5101275;28;20116;-80
2022/12/09 11:25:30;;;;;;;18.90;8.30;;;1.00;99.90;;;;;;5093306;28;20082;-80
2022/12/09 11:28:03;;;;;;;23.10;10.20;;;0.90;99.90;;;;;;5076483;28;20471;-82
2022/12/09 11:30:37;;;;;;;23.53;9.90;;;0.90;99.90;;;;;;5093332;28;20043;-81
2022/12/09 11:33:12;;;;;;;20.67;8.83;;;0.80;99.90;;;;;;5075021;28;20086;-82
2022/12/09 11:35:44;;;;;;;19.30;8.00;;;0.80;99.90;;;;;;5093560;28;20090;-81
2022/12/09 11:38:34;;;;;;;24.80;10.83;;;1.00;99.90;;;;;;5093220;28;20040;-81
2022/12/09 11:44:26;;;;;;;18.03;7.70;;;1.20;99.90;;;;;;5075914;28;20052;-80
2022/12/09 11:47:09;;;;;;;19.13;8.83;;;2.00;99.90;;;;;;5072645;28;20048;-80
2022/12/09 11:49:44;;;;;;;22.80;10.07;;;1.10;99.90;;;;;;5055610;28;20077;-80
2022/12/09 11:52:16;;;;;;;22.15;10.05;;;1.10;99.90;;;;;;5088046;28;20047;-80
2022/12/09 11:55:18;;;;;;;18.90;8.83;;;1.10;99.90;;;;;;5075668;28;20052;-80
2022/12/09 11:57:52;;;;;;;26.90;10.10;;;1.30;99.90;;;;;;5072397;28;20041;-80
2022/12/09 12:00:25;;;;;;;20.47;9.23;;;1.10;99.90;;;;;;5093228;28;20036;-84
2022/12/09 12:03:11;;;;;;;18.80;9.20;;;1.00;99.90;;;;;;5092222;28;20039;-84
2022/12/09 12:05:43;;;;;;;22.00;8.38;;;1.00;99.90;;;;;;5072582;28;20052;-84
2022/12/09 12:08:21;;;;;;;18.90;8.27;;;1.00;99.90;;;;;;5054821;28;20090;-84
2022/12/09 12:10:58;;;;;;;18.67;9.10;;;1.00;99.90;;;;;;5072243;28;20066;-84
2022/12/09 12:13:42;;;;;;;19.23;8.67;;;1.00;99.90;;;;;;5072815;28;20484;-84
2022/12/09 12:16:31;;;;;;;20.47;8.20;;;1.10;99.90;;;;;;5072372;28;20045;-84
2022/12/09 12:19:31;;;;;;;16.83;7.33;;;1.10;99.90;;;;;;5055510;28;20416;-80
2022/12/09 12:22:18;;;;;;;16.70;7.97;;;1.00;99.90;;;;;;5038819;28;20052;-79
2022/12/09 12:24:44;;;;;;;;;;;1.00;99.90;;;;;;5065957;28;20109;-79
2022/12/09 12:27:12;;;;;;;23.57;8.93;;;4.00;99.90;;;;;;5058264;28;19968;-79
2022/12/09 12:29:44;;;;;;;19.67;8.93;;;1.00;99.90;;;;;;5057784;28;20480;-79
2022/12/09 12:32:32;;;;;;;21.97;9.60;;;1.00;99.90;;;;;;5075122;28;20044;-79
2022/12/09 12:35:32;;;;;;;22.57;9.93;;;1.10;99.90;;;;;;5065534;28;20040;-79
2022/12/09 12:38:18;;;;;;;21.93;9.53;;;1.00;99.90;;;;;;5038660;28;20079;-79
2022/12/09 12:41:13;;;;;;;23.52;11.15;;;1.10;99.90;;;;;;5055268;28;20040;-79
2022/12/09 12:46:59;;;;;;;19.90;9.57;;;1.00;99.90;;;;;;5054929;28;20488;-79
2022/12/09 12:50:19;;;;;;;27.83;9.67;;;1.00;99.90;;;;;;5054934;28;20074;-79
2022/12/09 12:52:59;;;;;;;22.97;9.00;;;1.00;99.90;;;;;;5051105;28;20040;-79
2022/12/09 12:55:55;;;;;;;24.83;11.57;;;2.00;99.90;;;;;;5054880;28;20068;-79
2022/12/09 12:58:45;;;;;;;20.47;9.10;;;0.90;99.90;;;;;;5055128;28;20044;-79
2022/12/09 13:01:43;;;;;;;23.80;9.90;;;1.00;99.90;;;;;;5054694;28;20040;-79
2022/12/09 13:04:21;;;;;;;25.27;10.60;;;1.00;99.90;;;;;;5054752;28;20129;-79
2022/12/09 13:07:04;;;;;;;22.17;9.93;;;1.70;99.90;;;;;;5039465;28;20044;-79
2022/12/09 13:09:46;;;;;;;28.53;11.37;;;0.90;99.90;;;;;;5054878;28;20141;-79